Time;durP1;ratioP1;P1;durP2;ratioP2;P2;SDS_P1;SDS_P2;PMS_P1;PMS_P2;Temp;Humidity;BMP_temperature;BMP_pressure;BME280_temperature;BME280_humidity;BME280_pressure;Samples;Min_cycle;Max_cycle;Signal;HPM_P1;HPM_P2
2021/05/22 00:01:03;;;;;;;3.10;2.80;;;;;;;15.93;68.97;101185.88;5003975;28;103017;-63
2021/05/22 00:03:29;;;;;;;3.25;2.95;;;;;;;15.92;68.87;101185.06;5017785;27;103353;-63
2021/05/22 00:05:56;;;;;;;3.20;2.85;;;;;;;15.92;68.79;101187.81;5007034;28;102426;-62
2021/05/22 00:08:23;;;;;;;3.30;3.00;;;;;;;15.92;69.05;101198.78;4994493;28;103883;-63
2021/05/22 00:10:50;;;;;;;3.25;2.95;;;;;;;15.92;68.99;101209.75;5022745;28;102434;-62
2021/05/22 00:13:17;;;;;;;3.10;2.80;;;;;;;15.92;68.95;101209.75;5008712;28;103096;-62
2021/05/22 00:15:44;;;;;;;3.22;2.92;;;;;;;15.92;69.00;101206.22;5020132;28;103149;-62
2021/05/22 00:18:11;;;;;;;3.17;2.72;;;;;;;15.92;68.82;101209.75;5005858;27;103988;-62
2021/05/22 00:20:37;;;;;;;2.78;2.55;;;;;;;15.91;69.02;101202.66;5008274;28;102240;-62
2021/05/22 00:23:04;;;;;;;3.28;2.97;;;;;;;15.91;68.97;101207.31;4993164;28;102287;-62
2021/05/22 00:25:31;;;;;;;2.90;2.70;;;;;;;15.91;68.87;101207.31;5007743;27;102800;-62
2021/05/22 00:27:57;;;;;;;3.70;3.30;;;;;;;15.91;68.91;101205.41;4997476;28;103886;-62
2021/05/22 00:30:25;;;;;;;3.55;2.90;;;;;;;15.90;68.88;101201.00;5004541;28;102437;-62
2021/05/22 00:32:51;;;;;;;3.55;2.90;;;;;;;15.90;68.97;101201.00;5022964;27;102283;-62
2021/05/22 00:35:17;;;;;;;2.85;2.53;;;;;;;15.90;68.79;101206.47;5019207;28;102378;-62
2021/05/22 00:37:45;;;;;;;2.70;2.50;;;;;;;15.90;68.80;101201.00;4992859;28;104047;-62
2021/05/22 00:40:13;;;;;;;3.20;2.60;;;;;;;15.90;68.67;101211.97;5004375;28;102538;-62
2021/05/22 00:42:40;;;;;;;3.92;2.80;;;;;;;15.89;68.89;101215.84;5001197;28;102622;-63
2021/05/22 00:45:11;;;;;;;3.03;2.17;;;;;;;15.91;68.96;101212.81;5012318;28;102922;-63
2021/05/22 00:47:40;;;;;;;2.72;2.53;;;;;;;15.91;68.84;101213.63;5010439;27;104230;-63
2021/05/22 00:50:09;;;;;;;2.97;2.65;;;;;;;15.91;68.95;101212.81;5006959;27;102537;-62
2021/05/22 00:52:36;;;;;;;;;;;;;;;15.90;68.75;101208.41;5007531;27;102434;-62
2021/05/22 00:55:06;;;;;;;3.28;2.85;;;;;;;15.90;69.10;101211.97;5011316;28;104754;-62
2021/05/22 00:57:33;;;;;;;2.80;2.60;;;;;;;15.90;68.98;101209.22;5012906;28;104011;-62
2021/05/22 01:00:00;;;;;;;3.33;2.90;;;;;;;15.90;69.14;101208.41;5009723;28;102190;-62
2021/05/22 01:02:27;;;;;;;3.53;3.00;;;;;;;15.89;68.84;101204.84;4994023;28;102157;-62
2021/05/22 01:04:56;;;;;;;2.78;2.58;;;;;;;15.90;68.72;101203.75;5012490;28;102297;-62
2021/05/22 01:07:24;;;;;;;2.92;2.65;;;;;;;15.89;69.01;101210.34;5008335;28;104141;-62
2021/05/22 01:09:55;;;;;;;2.75;2.55;;;;;;;15.89;68.87;101204.84;5008839;28;102337;-62
2021/05/22 01:12:27;;;;;;;2.70;2.35;;;;;;;15.89;68.79;101199.38;5022502;28;102058;-63
2021/05/22 01:15:01;;;;;;;3.03;2.58;;;;;;;15.89;68.65;101199.38;5012216;28;102115;-62
2021/05/22 01:17:30;;;;;;;3.55;2.50;;;;;;;15.89;68.88;101199.38;5002962;28;104059;-62
2021/05/22 01:20:08;;;;;;;2.45;2.25;;;;;;;15.88;68.94;101192.25;5005825;28;102224;-62
2021/05/22 01:22:40;;;;;;;3.47;2.33;;;;;;;15.89;68.92;101193.88;5004765;28;102318;-62
2021/05/22 01:25:18;;;;;;;3.13;2.50;;;;;;;15.88;68.65;101192.25;4999204;28;102779;-62
2021/05/22 01:27:45;;;;;;;2.85;2.63;;;;;;;15.88;68.75;101197.75;5004227;28;103966;-62
2021/05/22 01:30:12;;;;;;;2.30;2.10;;;;;;;15.88;68.69;101197.75;5012163;27;102491;-62
2021/05/22 01:32:39;;;;;;;3.63;2.50;;;;;;;15.88;68.82;101191.44;5006147;28;102652;-62
2021/05/22 01:35:06;;;;;;;2.45;2.25;;;;;;;15.87;68.96;101185.16;4997056;28;102479;-62
2021/05/22 01:37:33;;;;;;;2.75;2.40;;;;;;;15.88;68.71;101191.44;4996508;28;103947;-62
2021/05/22 01:39:59;;;;;;;3.03;2.42;;;;;;;15.87;68.59;101196.13;5009570;28;102332;-62
2021/05/22 01:42:27;;;;;;;2.40;2.20;;;;;;;15.87;68.84;101198.88;4993946;28;102430;-62
2021/05/22 01:44:55;;;;;;;2.67;2.47;;;;;;;15.87;68.71;101207.09;4999301;27;102549;-62
2021/05/22 01:47:23;;;;;;;3.25;2.50;;;;;;;15.86;68.66;101206.25;5020668;28;103857;-62
2021/05/22 01:49:51;;;;;;;2.50;2.30;;;;;;;15.87;69.23;101218.06;5002571;28;102041;-62
2021/05/22 01:52:21;;;;;;;3.10;2.40;;;;;;;15.87;68.68;101218.06;5006597;28;102153;-62
2021/05/22 01:54:49;;;;;;;2.53;2.33;;;;;;;15.87;69.17;101218.06;5008342;28;104718;-62
2021/05/22 01:57:17;;;;;;;2.05;1.85;;;;;;;15.87;68.82;101220.81;5008288;28;104078;-62
2021/05/22 01:59:45;;;;;;;2.45;2.25;;;;;;;15.86;68.82;101219.97;5000309;28;102291;-62
2021/05/22 02:02:11;;;;;;;2.80;2.60;;;;;;;15.87;68.73;101231.81;5007588;28;102190;-62
2021/05/22 02:04:42;;;;;;;2.30;2.10;;;;;;;15.88;68.81;101229.88;5014662;27;102670;-63
2021/05/22 02:07:09;;;;;;;38.47;4.28;;;;;;;15.87;68.69;101231.81;5010761;28;104048;-62
2021/05/22 02:09:38;;;;;;;2.72;2.15;;;;;;;15.87;68.74;101245.53;4999155;28;102497;-62
2021/05/22 02:12:06;;;;;;;3.30;2.47;;;;;;;15.87;68.86;101251.00;5008953;28;103125;-62
2021/05/22 02:14:34;;;;;;;2.33;2.20;;;;;;;15.87;69.10;101240.03;5011561;28;102513;-63
2021/05/22 02:17:05;;;;;;;3.30;1.97;;;;;;;15.86;69.04;101243.88;5017024;27;103756;-62
2021/05/22 02:19:35;;;;;;;2.40;2.20;;;;;;;15.86;68.98;101238.38;5008636;27;102084;-63
2021/05/22 02:22:03;;;;;;;2.53;2.33;;;;;;;15.86;68.94;101254.84;5006387;28;102190;-62
2021/05/22 02:24:31;;;;;;;2.33;2.13;;;;;;;15.86;68.96;101254.84;5006773;28;102513;-62
2021/05/22 02:26:59;;;;;;;2.45;2.25;;;;;;;15.87;69.02;101256.50;5006001;28;103956;-63
2021/05/22 02:29:27;;;;;;;2.22;2.03;;;;;;;15.86;68.70;101258.41;5004677;28;102108;-63
2021/05/22 02:31:54;;;;;;;2.63;1.80;;;;;;;15.85;68.87;101259.53;5003763;28;102494;-62
2021/05/22 02:34:28;;;;;;;2.63;2.42;;;;;;;15.87;69.04;101270.22;5023124;27;102323;-62
2021/05/22 02:36:57;;;;;;;2.63;2.42;;;;;;;15.86;69.13;101266.63;5009936;28;103168;-62
2021/05/22 02:39:25;;;;;;;2.45;2.05;;;;;;;15.85;68.66;101265.00;5006852;28;102854;-62
2021/05/22 02:41:54;;;;;;;2.40;2.20;;;;;;;15.86;68.99;101265.81;5005691;28;102066;-62
2021/05/22 02:44:21;;;;;;;2.20;2.10;;;;;;;15.86;68.96;101263.09;5007695;28;102230;-63
2021/05/22 02:46:49;;;;;;;1.90;1.80;;;;;;;15.85;69.10;101265.00;5008081;28;103865;-63
2021/05/22 02:49:18;;;;;;;2.10;2.00;;;;;;;15.84;68.92;101268.06;4995754;28;102203;-63
2021/05/22 02:51:49;;;;;;;2.58;2.00;;;;;;;15.85;68.87;101265.00;5022872;27;102634;-62
2021/05/22 02:54:20;;;;;;;2.40;2.10;;;;;;;15.85;68.96;101269.69;4995572;28;102300;-62
2021/05/22 02:56:47;;;;;;;2.63;2.10;;;;;;;15.85;68.90;101269.69;4993260;28;103779;-62
2021/05/22 02:59:15;;;;;;;2.55;2.15;;;;;;;15.85;68.83;101264.19;5001840;28;102368;-62
2021/05/22 03:01:42;;;;;;;2.00;1.90;;;;;;;15.85;68.84;101264.19;5000643;28;102448;-62
2021/05/22 03:04:08;;;;;;;2.53;1.90;;;;;;;15.85;68.75;101269.69;5016750;28;102637;-62
2021/05/22 03:06:35;;;;;;;3.45;1.80;;;;;;;15.84;69.00;101274.38;5006166;28;103839;-62
2021/05/22 03:09:03;;;;;;;2.05;1.95;;;;;;;15.84;68.89;101266.13;5006865;28;102583;-62
2021/05/22 03:11:30;;;;;;;2.08;1.88;;;;;;;15.84;68.63;101277.13;5023464;27;103219;-62
2021/05/22 03:13:56;;;;;;;2.33;2.00;;;;;;;15.84;68.65;101284.53;5001491;28;102141;-62
2021/05/22 03:16:23;;;;;;;2.25;2.00;;;;;;;15.85;68.46;101280.66;4991464;28;104123;-62
2021/05/22 03:18:50;;;;;;;1.88;1.77;;;;;;;15.84;68.64;101290.03;5010847;28;102350;-62
2021/05/22 03:21:16;;;;;;;1.85;1.75;;;;;;;15.85;68.68;101291.66;5008385;28;102561;-62
2021/05/22 03:23:43;;;;;;;2.00;1.88;;;;;;;15.84;68.76;101284.53;5001822;28;102939;-63
2021/05/22 03:26:11;;;;;;;2.25;1.92;;;;;;;15.85;68.96;101291.66;5000402;28;103938;-62
2021/05/22 03:28:38;;;;;;;2.05;1.95;;;;;;;15.85;68.61;101291.66;5003284;28;102384;-62
2021/05/22 03:31:05;;;;;;;1.75;1.65;;;;;;;15.84;68.75;101296.31;4997497;28;102095;-62
2021/05/22 03:33:31;;;;;;;2.25;2.05;;;;;;;15.85;69.23;101303.44;5014665;28;102136;-62
2021/05/22 03:35:57;;;;;;;2.28;2.08;;;;;;;15.85;69.29;101308.13;5007421;28;103820;-62
2021/05/22 03:38:24;;;;;;;3.20;2.10;;;;;;;15.85;69.31;101313.59;5009723;28;102056;-62
2021/05/22 03:40:51;;;;;;;1.77;1.67;;;;;;;15.85;69.16;101310.84;5007078;28;102208;-63
2021/05/22 03:43:18;;;;;;;2.20;2.10;;;;;;;15.86;68.87;101321.53;5001282;28;102277;-62
2021/05/22 03:45:45;;;;;;;2.67;2.47;;;;;;;15.86;68.99;101321.53;4999530;28;104906;-62
2021/05/22 03:48:12;;;;;;;2.10;1.92;;;;;;;15.86;69.00;101320.72;5002863;28;102014;-62
2021/05/22 03:50:39;;;;;;;2.67;2.10;;;;;;;15.87;68.88;101316.88;5006788;27;104715;-62
2021/05/22 03:53:07;;;;;;;2.40;2.20;;;;;;;15.88;69.23;101318.50;5006752;28;102559;-63
2021/05/22 03:55:34;;;;;;;2.47;1.87;;;;;;;15.89;68.94;101319.31;5019997;27;103951;-62
2021/05/22 03:58:00;;;;;;;5.40;2.10;;;;;;;15.89;68.92;101325.63;5008683;28;102562;-62
2021/05/22 04:00:28;;;;;;;2.08;1.92;;;;;;;15.91;69.25;101336.34;5003159;28;102565;-62
2021/05/22 04:02:55;;;;;;;2.65;1.90;;;;;;;15.92;69.04;101336.03;4995480;28;102711;-62
2021/05/22 04:05:22;;;;;;;1.98;1.88;;;;;;;15.92;69.26;101341.53;4995536;28;103931;-62
2021/05/22 04:07:49;;;;;;;2.10;1.90;;;;;;;15.93;69.11;101354.13;5025854;28;101869;-62
2021/05/22 04:10:15;;;;;;;1.70;1.60;;;;;;;15.93;69.06;101354.13;5005523;28;102214;-63
2021/05/22 04:12:41;;;;;;;1.90;1.80;;;;;;;15.94;69.05;101353.03;4994038;28;102226;-62
2021/05/22 04:15:09;;;;;;;1.80;1.70;;;;;;;15.95;69.07;101360.16;5005555;28;104042;-62
2021/05/22 04:17:37;;;;;;;2.17;1.98;;;;;;;15.95;69.41;101357.41;5001113;28;102428;-62
2021/05/22 04:20:06;;;;;;;1.90;1.80;;;;;;;15.96;69.66;101353.56;4995821;28;102598;-62
2021/05/22 04:22:32;;;;;;;2.05;1.67;;;;;;;15.97;69.52;101352.44;4993417;28;102157;-62
2021/05/22 04:24:59;;;;;;;1.83;1.73;;;;;;;15.97;69.18;101349.69;4999241;28;103964;-62
2021/05/22 04:27:25;;;;;;;2.22;2.03;;;;;;;15.98;69.05;101347.78;5000339;28;102223;-62
2021/05/22 04:29:52;;;;;;;2.25;2.05;;;;;;;15.97;69.60;101349.69;4991916;28;102705;-62
2021/05/22 04:32:18;;;;;;;2.22;2.03;;;;;;;15.98;69.10;101356.84;5006718;28;102103;-62
2021/05/22 04:34:46;;;;;;;2.10;1.90;;;;;;;16.00;69.48;101362.03;5012962;28;103930;-62
2021/05/22 04:37:13;;;;;;;2.17;1.98;;;;;;;16.00;69.19;101362.84;5005057;28;102127;-62
2021/05/22 04:39:39;;;;;;;1.83;1.73;;;;;;;16.00;69.15;101362.84;4993828;28;102362;-62
2021/05/22 04:42:06;;;;;;;2.00;1.90;;;;;;;16.03;69.05;101359.50;5000345;28;103943;-62
2021/05/22 04:44:32;;;;;;;1.88;1.77;;;;;;;16.02;69.12;101352.38;5003928;28;103849;-62
2021/05/22 04:46:59;;;;;;;3.03;1.80;;;;;;;16.04;68.98;101355.63;5011566;28;102550;-63
2021/05/22 04:49:27;;;;;;;1.67;1.58;;;;;;;16.07;69.40;101348.75;5010280;28;102354;-62
2021/05/22 04:51:55;;;;;;;1.98;1.88;;;;;;;16.06;69.27;101356.19;5007751;28;104282;-62
2021/05/22 04:54:22;;;;;;;2.45;1.92;;;;;;;16.09;68.70;101347.38;4997170;28;103662;-62
2021/05/22 04:56:49;;;;;;;2.10;1.85;;;;;;;16.12;69.02;101358.84;5010364;28;102193;-62
2021/05/22 04:59:15;;;;;;;1.63;1.52;;;;;;;16.14;69.45;101353.91;4991419;28;102225;-62
2021/05/22 05:01:42;;;;;;;1.95;1.50;;;;;;;16.16;69.12;101359.94;5004937;28;102599;-62
2021/05/22 05:04:09;;;;;;;1.83;1.70;;;;;;;16.17;69.17;101358.81;5009618;28;103861;-62
2021/05/22 05:06:36;;;;;;;2.05;1.85;;;;;;;16.23;69.04;101360.38;5008826;27;102289;-62
2021/05/22 05:09:05;;;;;;;4.22;2.50;;;;;;;16.30;68.16;101352.59;4998168;28;102493;-63
2021/05/22 05:11:32;;;;;;;2.53;2.22;;;;;;;16.34;67.95;101353.66;5009929;28;102749;-62
2021/05/22 05:13:59;;;;;;;3.13;2.10;;;;;;;16.38;68.13;101354.69;5011249;28;103869;-62
2021/05/22 05:16:28;;;;;;;2.17;1.98;;;;;;;16.46;67.95;101365.03;5002926;28;102216;-61
2021/05/22 05:18:54;;;;;;;11.90;2.30;;;;;;;16.64;67.09;101362.59;5004309;28;102180;-60
2021/05/22 05:21:21;;;;;;;3.45;2.35;;;;;;;16.75;66.80;101361.34;5009302;28;102135;-60
2021/05/22 05:25:30;;;;;;;10.07;2.72;;;;;;;17.04;66.11;101353.75;5021542;27;102168;-78
2021/05/22 05:27:56;;;;;;;5.32;2.90;;;;;;;16.89;66.83;101353.19;5024299;27;102526;-78
2021/05/22 05:30:23;;;;;;;8.80;2.92;;;;;;;16.88;66.27;101357.88;5020660;27;103978;-76
2021/05/22 05:32:50;;;;;;;6.82;2.72;;;;;;;16.92;65.41;101358.91;5019718;27;102028;-78
2021/05/22 05:35:17;;;;;;;4.13;2.80;;;;;;;16.94;65.00;101345.66;5020308;28;102225;-77
2021/05/22 05:37:43;;;;;;;5.97;2.88;;;;;;;16.96;64.91;101359.94;5026087;28;102140;-78
2021/05/22 05:40:11;;;;;;;6.47;2.95;;;;;;;16.99;64.55;101362.09;5023111;27;103937;-78
2021/05/22 05:42:38;;;;;;;30.90;4.15;;;;;;;16.95;64.53;101362.97;5022323;28;102398;-72
2021/05/22 05:45:07;;;;;;;14.25;3.58;;;;;;;16.83;65.97;101371.69;5022935;27;102964;-73
2021/05/22 05:47:34;;;;;;;5.93;3.05;;;;;;;16.77;67.01;101372.88;5022755;27;102249;-73
2021/05/22 05:50:00;;;;;;;9.07;3.47;;;;;;;16.75;66.73;101378.66;5021683;28;105114;-72
2021/05/22 05:52:27;;;;;;;10.15;3.70;;;;;;;16.73;67.29;101374.53;5017618;27;102796;-64
2021/05/22 05:54:53;;;;;;;8.32;2.80;;;;;;;16.88;66.72;101374.38;5018727;28;102337;-78
2021/05/22 05:57:20;;;;;;;5.18;2.70;;;;;;;17.02;65.54;101375.25;5020727;28;102176;-67
2021/05/22 05:59:48;;;;;;;16.45;3.22;;;;;;;17.14;65.01;101363.78;5015400;28;103129;-76
2021/05/22 06:02:14;;;;;;;17.42;3.67;;;;;;;16.94;66.27;101373.16;5024832;27;102304;-76
2021/05/22 06:04:41;;;;;;;10.77;3.78;;;;;;;16.85;66.61;101366.72;5022862;27;102203;-76
2021/05/22 06:07:07;;;;;;;7.13;3.00;;;;;;;16.81;66.60;101373.91;5025129;27;103030;-76
2021/05/22 06:09:34;;;;;;;11.13;3.10;;;;;;;16.79;66.65;101367.88;5018271;27;103946;-77
2021/05/22 06:12:01;;;;;;;7.18;3.75;;;;;;;16.78;66.67;101364.34;5018589;27;102922;-76
2021/05/22 06:14:31;;;;;;;6.10;3.05;;;;;;;16.80;66.96;101366.78;5022917;28;102524;-77
2021/05/22 06:17:01;;;;;;;7.85;3.45;;;;;;;16.87;66.64;101356.22;5023152;28;102280;-75
2021/05/22 06:19:28;;;;;;;5.50;2.70;;;;;;;16.96;66.38;101356.38;5019212;28;104053;-76
2021/05/22 06:21:54;;;;;;;10.10;3.13;;;;;;;16.87;66.46;101358.97;5021750;27;102728;-75
2021/05/22 06:24:22;;;;;;;7.57;3.25;;;;;;;16.83;66.54;101368.13;5022581;27;102473;-76
2021/05/22 06:26:48;;;;;;;4.22;2.80;;;;;;;16.83;66.93;101366.19;5020482;27;102701;-76
2021/05/22 06:29:14;;;;;;;10.30;2.97;;;;;;;16.83;66.48;101368.94;5023730;27;102625;-76
2021/05/22 06:31:42;;;;;;;5.75;3.00;;;;;;;16.84;66.35;101362.34;5024433;27;102518;-76
2021/05/22 06:34:09;;;;;;;5.68;3.03;;;;;;;16.83;66.54;101360.69;5024050;27;102539;-76
2021/05/22 06:36:36;;;;;;;4.73;3.00;;;;;;;16.89;66.67;101365.00;5001976;28;102489;-78
2021/05/22 06:39:05;;;;;;;7.40;2.88;;;;;;;17.10;64.63;101365.50;5009596;28;104316;-79
2021/05/22 06:41:31;;;;;;;3.45;2.47;;;;;;;17.19;63.58;101365.63;5014563;28;102728;-79
2021/05/22 06:43:58;;;;;;;2.90;2.20;;;;;;;17.19;64.37;101365.63;5015039;28;102597;-79
2021/05/22 06:48:52;;;;;;;10.30;2.40;;;;;;;17.13;64.12;101369.56;5011469;28;102635;-75
2021/05/22 06:51:19;;;;;;;5.75;2.20;;;;;;;16.97;65.07;101372.56;5007786;28;102192;-75
2021/05/22 06:53:46;;;;;;;4.63;2.60;;;;;;;16.92;65.45;101369.91;5003316;28;102105;-74
2021/05/22 06:56:13;;;;;;;3.17;2.80;;;;;;;16.92;65.23;101371.84;5005212;28;102212;-75
2021/05/22 06:58:39;;;;;;;4.53;2.20;;;;;;;16.89;65.59;101370.50;5000744;28;104011;-72
2021/05/22 07:01:06;;;;;;;10.13;2.97;;;;;;;17.19;64.16;101362.88;5005844;28;102507;-74
2021/05/22 07:03:32;;;;;;;55.97;6.95;;;;;;;17.52;61.56;101356.22;5004342;28;102275;-66
2021/05/22 07:06:01;;;;;;;50.25;7.20;;;;;;;17.87;59.08;101350.41;5002245;28;102738;-72
2021/05/22 07:08:28;;;;;;;55.08;6.35;;;;;;;18.04;58.33;101355.31;5004740;28;103974;-72
2021/05/22 07:10:55;;;;;;;29.15;5.75;;;;;;;17.94;58.37;101356.34;5022859;28;102648;-70
2021/05/22 07:13:22;;;;;;;39.45;5.15;;;;;;;17.53;62.05;101355.13;5000180;28;102880;-69
2021/05/22 07:15:48;;;;;;;42.55;5.80;;;;;;;17.31;63.18;101355.00;5000903;28;102636;-69
2021/05/22 07:18:15;;;;;;;33.60;6.88;;;;;;;17.21;63.39;101357.91;5005680;28;104359;-70
2021/05/22 07:20:41;;;;;;;29.42;5.70;;;;;;;17.14;63.94;101354.72;5006142;28;105806;-70
2021/05/22 07:23:08;;;;;;;27.17;5.32;;;;;;;17.11;64.10;101349.81;5005191;28;102170;-70
2021/05/22 07:25:35;;;;;;;21.50;4.95;;;;;;;17.08;64.08;101339.41;5001541;28;102572;-70
2021/05/22 07:28:02;;;;;;;26.58;5.03;;;;;;;17.10;64.50;101349.00;5008237;28;104347;-70
2021/05/22 07:30:28;;;;;;;25.52;4.47;;;;;;;17.05;64.43;101341.63;5008073;28;102588;-69
2021/05/22 07:32:55;;;;;;;18.60;4.82;;;;;;;17.05;64.58;101341.63;5013021;28;102077;-69
2021/05/22 07:35:21;;;;;;;25.73;5.22;;;;;;;17.00;64.62;101333.47;5010389;28;102131;-69
2021/05/22 07:37:48;;;;;;;18.65;4.60;;;;;;;17.00;65.08;101338.97;5010263;28;103911;-69
2021/05/22 07:40:14;;;;;;;19.40;4.22;;;;;;;16.99;64.64;101342.84;5009159;28;102690;-69
2021/05/22 07:42:48;;;;;;;25.73;4.45;;;;;;;16.98;65.38;101335.69;5011888;28;102164;-69
2021/05/22 07:45:14;;;;;;;19.92;4.47;;;;;;;16.98;65.06;101349.44;5012250;28;102567;-69
2021/05/22 07:47:42;;;;;;;25.70;4.78;;;;;;;16.97;65.24;101339.56;5006182;28;104141;-69
2021/05/22 07:50:09;;;;;;;19.90;4.55;;;;;;;16.97;65.50;101344.25;5008039;28;102458;-69
2021/05/22 07:52:36;;;;;;;14.95;3.70;;;;;;;16.98;65.54;101343.94;5005721;28;102353;-69
2021/05/22 07:55:03;;;;;;;16.80;4.00;;;;;;;16.99;64.90;101336.53;5008320;28;102328;-69
2021/05/22 07:57:30;;;;;;;19.23;4.18;;;;;;;16.98;65.10;101341.19;5004234;28;103926;-69
2021/05/22 07:59:57;;;;;;;14.15;4.53;;;;;;;16.97;65.39;101339.56;5003039;28;102695;-69
2021/05/22 08:02:23;;;;;;;15.52;3.80;;;;;;;16.98;65.36;101334.88;5009034;28;102393;-69
2021/05/22 08:04:51;;;;;;;14.10;4.50;;;;;;;16.97;65.57;101328.56;5011952;28;102211;-70
2021/05/22 08:07:17;;;;;;;16.98;4.72;;;;;;;17.08;65.19;101339.41;5002168;28;103914;-72
2021/05/22 08:09:44;;;;;;;12.73;4.15;;;;;;;17.00;65.20;101338.97;5008242;28;102281;-72
2021/05/22 08:12:10;;;;;;;15.95;3.65;;;;;;;17.03;65.37;101341.13;5005545;28;102650;-70
2021/05/22 08:14:39;;;;;;;14.70;3.17;;;;;;;17.19;64.53;101338.13;5006379;28;102120;-71
2021/05/22 08:17:06;;;;;;;13.57;2.85;;;;;;;17.75;59.50;101334.38;5008089;28;104159;-73
2021/05/22 08:19:34;;;;;;;6.13;2.10;;;;;;;17.93;56.30;101327.97;5009833;28;102566;-73
2021/05/22 08:22:00;;;;;;;3.50;2.10;;;;;;;17.99;55.18;101332.28;5008388;28;102269;-74
2021/05/22 08:24:27;;;;;;;5.00;1.55;;;;;;;18.10;55.03;101326.53;5008448;28;102682;-76
2021/05/22 08:26:54;;;;;;;8.10;1.60;;;;;;;18.26;52.74;101327.84;5006390;28;103889;-74
2021/05/22 08:29:21;;;;;;;5.22;1.65;;;;;;;18.36;52.20;101329.59;5006876;28;102661;-74
2021/05/22 08:31:48;;;;;;;4.45;1.52;;;;;;;18.40;52.95;101331.41;4999850;28;102562;-73
2021/05/22 08:34:15;;;;;;;5.28;1.63;;;;;;;18.22;54.74;101329.59;5003809;28;102829;-75
2021/05/22 08:36:41;;;;;;;6.95;1.80;;;;;;;18.14;55.74;101333.06;5004776;28;103976;-73
2021/05/22 08:39:08;;;;;;;7.05;1.50;;;;;;;18.16;54.89;101333.59;5008993;28;102503;-75
2021/05/22 08:41:37;;;;;;;3.47;1.40;;;;;;;18.22;54.73;101324.09;5008613;28;102482;-74
2021/05/22 08:44:04;;;;;;;5.87;1.53;;;;;;;18.21;54.17;101328.78;5007938;28;102572;-74
2021/05/22 08:46:31;;;;;;;21.20;3.60;;;;;;;18.02;56.37;101334.41;5006556;28;103694;-72
2021/05/22 08:48:58;;;;;;;8.15;1.92;;;;;;;17.65;58.14;101332.63;5006879;28;102472;-72
2021/05/22 08:51:26;;;;;;;4.10;1.75;;;;;;;17.49;59.88;101329.34;5005765;28;104071;-72
2021/05/22 08:53:53;;;;;;;6.53;2.30;;;;;;;17.41;60.76;101323.72;5000244;28;102271;-72
2021/05/22 08:56:19;;;;;;;6.60;2.20;;;;;;;17.32;61.08;101318.09;5007206;28;103854;-72
2021/05/22 08:58:47;;;;;;;5.47;1.80;;;;;;;17.28;60.88;101322.56;5004507;28;102199;-72
2021/05/22 09:01:14;;;;;;;5.30;1.90;;;;;;;17.25;61.36;101318.47;4999857;28;102152;-73
2021/05/22 09:03:42;;;;;;;3.65;1.70;;;;;;;17.22;61.78;101319.09;5004453;28;102377;-72
2021/05/22 09:06:09;;;;;;;3.45;1.83;;;;;;;17.20;61.75;101315.00;5002495;28;103933;-72
2021/05/22 09:08:37;;;;;;;7.47;1.80;;;;;;;17.17;62.01;101310.94;5003831;28;102578;-72
2021/05/22 09:11:05;;;;;;;6.78;1.80;;;;;;;17.17;62.15;101323.88;5002342;28;102283;-72
2021/05/22 09:13:34;;;;;;;3.90;1.85;;;;;;;17.18;61.76;101311.75;5006261;28;102259;-72
2021/05/22 09:16:02;;;;;;;2.00;1.77;;;;;;;17.20;62.53;101304.00;5004493;28;103527;-73
2021/05/22 09:18:32;;;;;;;4.00;2.00;;;;;;;17.18;62.98;101311.75;5006024;28;102427;-72
2021/05/22 09:21:01;;;;;;;7.30;2.30;;;;;;;17.19;62.59;101313.38;5004107;28;102681;-72
2021/05/22 09:23:28;;;;;;;;;;;;;;;17.16;62.75;101313.97;5005141;28;102951;-72
2021/05/22 09:25:57;;;;;;;3.70;1.90;;;;;;;17.15;62.82;101318.66;5002050;28;104073;-73
2021/05/22 09:28:27;;;;;;;2.25;1.60;;;;;;;17.11;62.92;101314.88;5007068;28;103057;-72
2021/05/22 09:30:54;;;;;;;2.38;1.70;;;;;;;17.07;63.12;101311.09;5004084;28;102256;-72
2021/05/22 09:33:24;;;;;;;2.35;1.70;;;;;;;17.04;63.36;101312.50;5004857;28;102668;-72
2021/05/22 09:35:52;;;;;;;2.37;1.50;;;;;;;17.22;62.53;101307.28;5002671;28;103938;-80
2021/05/22 09:38:19;;;;;;;3.90;1.48;;;;;;;17.83;57.95;101303.41;5006759;28;102407;-79
2021/05/22 09:40:46;;;;;;;2.63;1.42;;;;;;;17.98;55.45;101305.03;5010242;28;102412;-79
2021/05/22 09:43:14;;;;;;;1.75;1.08;;;;;;;18.06;55.20;101303.50;5010655;28;103258;-79
2021/05/22 09:45:44;;;;;;;1.92;1.25;;;;;;;18.01;54.62;101302.47;5013466;27;104116;-78
2021/05/22 09:48:14;;;;;;;1.47;1.37;;;;;;;18.00;54.27;101300.84;5006920;28;102483;-78
2021/05/22 09:50:43;;;;;;;4.45;1.25;;;;;;;18.01;53.60;101299.72;5002631;28;102488;-79
2021/05/22 09:53:25;;;;;;;1.70;1.10;;;;;;;17.91;53.94;101297.16;5001866;28;104237;-79
2021/05/22 09:56:18;;;;;;;3.78;1.10;;;;;;;18.12;52.95;101296.75;4998518;28;103859;-78
2021/05/22 09:58:49;;;;;;;3.45;1.20;;;;;;;18.09;52.16;101297.38;5004996;28;103260;-79
2021/05/22 10:01:17;;;;;;;3.42;1.10;;;;;;;18.14;51.20;101305.50;4997452;28;103005;-79
2021/05/22 10:03:47;;;;;;;1.67;0.73;;;;;;;18.18;50.55;101301.84;5003160;28;102523;-78
2021/05/22 10:06:15;;;;;;;2.45;1.05;;;;;;;18.18;50.23;101301.03;5001104;28;103909;-78
2021/05/22 10:09:10;;;;;;;3.50;1.08;;;;;;;18.21;51.05;101290.22;5007672;28;102320;-79
2021/05/22 10:12:04;;;;;;;36.60;2.22;;;;;;;18.06;51.76;101303.50;5002886;28;102081;-75
2021/05/22 10:14:34;;;;;;;24.10;2.05;;;;;;;18.14;49.37;101300.00;5010866;28;102493;-79
2021/05/22 10:17:02;;;;;;;13.23;1.42;;;;;;;18.18;49.34;101290.84;5006527;28;104119;-80
2021/05/22 10:19:30;;;;;;;10.75;1.67;;;;;;;18.20;49.18;101282.25;5005783;28;102066;-65
2021/05/22 10:21:57;;;;;;;18.13;1.58;;;;;;;18.02;50.86;101282.06;5010492;28;102248;-63
2021/05/22 10:24:25;;;;;;;16.13;2.00;;;;;;;18.08;51.69;101280.03;5003930;28;102206;-69
2021/05/22 10:26:53;;;;;;;19.20;2.35;;;;;;;17.87;54.21;101285.16;5005167;28;104922;-69
2021/05/22 10:29:20;;;;;;;15.15;1.67;;;;;;;17.73;55.87;101279.59;5007439;28;102614;-69
2021/05/22 10:31:49;;;;;;;10.23;2.03;;;;;;;17.65;56.57;101282.25;5005733;28;103548;-69
2021/05/22 10:34:18;;;;;;;11.65;1.55;;;;;;;17.56;57.13;101273.88;5009410;28;102365;-69
2021/05/22 10:36:48;;;;;;;8.07;1.58;;;;;;;17.50;57.53;101267.69;5008036;28;104371;-69
2021/05/22 10:39:39;;;;;;;11.85;1.70;;;;;;;17.42;58.01;101271.16;5006381;28;102935;-70
2021/05/22 10:42:08;;;;;;;7.95;1.80;;;;;;;17.43;58.88;101270.00;5008262;28;102727;-69
2021/05/22 10:44:38;;;;;;;6.25;1.55;;;;;;;17.42;58.43;101271.16;5012970;28;102828;-70
2021/05/22 10:47:12;;;;;;;8.48;1.95;;;;;;;17.39;58.52;101260.75;5009702;28;103878;-69
2021/05/22 10:49:51;;;;;;;6.10;1.70;;;;;;;17.38;58.98;101261.03;5001859;28;104296;-69
2021/05/22 10:52:20;;;;;;;7.63;1.75;;;;;;;17.37;59.13;101260.22;5004167;28;101848;-69
2021/05/22 10:55:07;;;;;;;5.23;1.30;;;;;;;17.35;58.69;101262.47;5014563;28;102546;-69
2021/05/22 10:58:12;;;;;;;6.57;1.60;;;;;;;17.31;59.37;101264.19;5008060;28;104058;-69
2021/05/22 11:00:39;;;;;;;6.50;1.80;;;;;;;17.29;59.44;101260.94;5005461;28;102325;-70
2021/05/22 11:03:11;;;;;;;3.92;1.58;;;;;;;17.24;59.79;101255.53;5001612;28;102728;-69
2021/05/22 11:05:39;;;;;;;5.32;1.70;;;;;;;17.25;59.86;101262.66;5006199;28;102326;-69
2021/05/22 11:08:30;;;;;;;1.57;1.20;;;;;;;17.24;59.60;101264.59;5008477;28;103673;-69
2021/05/22 11:11:00;;;;;;;2.60;1.50;;;;;;;17.22;60.02;101263.25;4998833;28;102350;-69
2021/05/22 11:13:38;;;;;;;6.70;1.60;;;;;;;17.20;60.42;101265.47;5005745;28;102637;-70
2021/05/22 11:16:06;;;;;;;9.23;2.17;;;;;;;17.14;60.45;101262.03;4998603;28;102325;-70
2021/05/22 11:18:59;;;;;;;4.95;1.60;;;;;;;17.16;60.35;101254.28;5010133;28;103901;-70
2021/05/22 11:21:26;;;;;;;2.92;1.35;;;;;;;17.15;60.80;101252.66;5001586;28;101996;-69
2021/05/22 11:24:07;;;;;;;2.08;1.45;;;;;;;17.16;60.56;101256.22;5008071;28;102162;-70
2021/05/22 11:26:59;;;;;;;3.90;1.55;;;;;;;17.12;60.81;101253.25;5009668;28;102667;-69